Ana Sayfa
METAR-TAF:

METAR-TAF

Havaalanları :

Harbin Taiping Uluslararası Havalimanı

Harbin, Çin

Enlem: 45-45N, Boylam: 126-46E, yükseklik: 143 m

Güncel hava durumu gözlemi

Rapor saat 01:00 UTC de 1 saat ve 2 dakika önce yapıldı.
Rüzgar güney/güneybatıdan 12 kt
Sıcaklık 29°C
Nem 66%
Basınç 1007 hPa
Görüş mesafesi: 7000 m

METAR: ZYHB 160100Z 20006MPS 7000 NSC 29/22 Q1007 NOSIG

Saat: 10:02 (02:02 UTC)

Tahmin

Rapor saat 21:01 UTC de 5 saat ve 1 dakika önce yapıldı.
Ayın 16'si saat 00 UTC'den ayın 16'si saat 24 UTC'ye kadar geçerli Tahmin
Rüzgar güney/güneybatıdan 8 kt
Görüş mesafesi: 6000 m
3000 ft yükseklikte parçalı bulutlu

TAF: ZYHB 152101Z 1600/1624 20004MPS 6000 SCT030 TX32/1606Z TN23/1621Z

4.000'den fazla havaalanı için hava durumu gözlemleri ve tahminleri (METAR ve TAF raporları).

Kullanılabilir istasyonlar harita üzerinde sarı ve kırmızı noktalarla gösterilir.

İstasyonun adını görmek için fareyi noktanın üzerinde gezdirin.

Sonrasında hava gözlem ve tahminlerini görmek için tıklayın.

Haritayı değiştirmek için: yaklaştırmak için siyah artı işaretli yeşil düğmeye ve uzaklaştırmak için de eksi işaretli düğmeye hızla tıklayın; bitişik haritalar için yeşil okları kullanın.


METAR-TAF: